»·PEaware :: DAL633 KLAS-KSAN

DAL633 :: KLAS-KSAN

FLIGHT INFORMATION

Flight Status: Arrived
Operator:
Delta Air Lines
More flights by this operator :: More flights under this callsign
Pilot: Kevin M. (7)
Aircraft: BOEING 737-800
(B738)
More flights by this aircraft type
Origin: KLAS McCarran Intl
United States
Destination: KSAN San Diego Intl-Lindbergh
United States
More flights between these airports :: More routes between these airports
Route: +BOACH8 LVELL LUCKI1
File this flight plan on PilotEdge
Remarks:
Altitude:
(Current/Filed)
28,000ft
Speed:
(Current/Filed)
468kts
Departed: 22-Jun-20 08:26 PM
Arrived: 22-Jun-20 09:07 PM
Distance/Time
Traveled:
225nm/0:41
Distance/Time
To Go:
Arrived

Flight Plot

Page will automatically refresh every two minutes.

Flight plan parsing failed; only flown route is shown


Map Options




Map Legend


Flown Route
Filed Route
Departure Airport
Arrival Airport
Navaid (VOR, NDB)
Fix

Horizontal Profiles

Position Reports

Time Latitude Longitude Heading Altitude Ground
Speed
22-Jun-20 20:00 36.080427 -115.138860 345 2075ft 0kts
22-Jun-20 20:01 36.080427 -115.138860 345 2075ft 0kts
22-Jun-20 20:02 36.080427 -115.138860 345 2075ft 0kts
22-Jun-20 20:03 36.080427 -115.138860 345 2075ft 0kts
22-Jun-20 20:04 36.080427 -115.138860 345 2075ft 0kts
22-Jun-20 20:05 36.080427 -115.138860 345 2075ft 0kts
22-Jun-20 20:06 36.080427 -115.138860 345 2075ft 0kts
22-Jun-20 20:07 36.080427 -115.138860 345 2075ft 0kts
22-Jun-20 20:09 36.080427 -115.138860 345 2075ft 0kts
22-Jun-20 20:10 36.080427 -115.138860 345 2075ft 0kts
22-Jun-20 20:11 36.080427 -115.138860 345 2075ft 0kts
22-Jun-20 20:12 36.080427 -115.138860 345 2075ft 0kts
22-Jun-20 20:13 36.079995 -115.138720 345 2076ft 2kts
22-Jun-20 20:14 36.079727 -115.138400 229 2075ft 0kts
22-Jun-20 20:15 36.079785 -115.138335 225 2075ft 0kts
22-Jun-20 20:16 36.079785 -115.138335 225 2075ft 0kts
22-Jun-20 20:17 36.079781 -115.138340 225 2075ft 0kts
22-Jun-20 20:18 36.079140 -115.139168 225 2079ft 0kts
22-Jun-20 20:19 36.078253 -115.141895 271 2089ft 23kts
22-Jun-20 20:20 36.078801 -115.151664 273 2121ft 20kts
22-Jun-20 20:21 36.083330 -115.155984 333 2127ft 31kts
22-Jun-20 20:22 36.090936 -115.155771 28 2107ft 32kts
22-Jun-20 20:23 36.097737 -115.152150 326 2081ft 12kts
22-Jun-20 20:24 36.097918 -115.152347 310 2081ft 0kts
22-Jun-20 20:24 36.097153 -115.154365 204 2088ft 40kts
22-Jun-20 20:26 36.053155 -115.180990 206 3687ft 194kts
22-Jun-20 20:27 36.004289 -115.226292 235 5720ft 263kts
22-Jun-20 20:27 35.964949 -115.289493 212 8034ft 296kts
22-Jun-20 20:29 35.868859 -115.313833 182 11068ft 330kts
22-Jun-20 20:29 35.786686 -115.307271 173 12289ft 373kts
22-Jun-20 20:30 35.681624 -115.295338 176 14716ft 384kts
22-Jun-20 20:31 35.573754 -115.298690 181 16833ft 394kts
22-Jun-20 20:32 35.462990 -115.303222 181 18722ft 403kts
22-Jun-20 20:33 35.348113 -115.307775 181 19589ft 432kts
22-Jun-20 20:34 35.225032 -115.312638 181 20402ft 450kts
22-Jun-20 20:35 35.099124 -115.317597 181 21478ft 456kts
22-Jun-20 20:36 34.971626 -115.322558 181 22369ft 464kts
22-Jun-20 20:37 34.839778 -115.329599 188 22893ft 480kts
22-Jun-20 20:38 34.709148 -115.365767 197 23695ft 485kts
22-Jun-20 20:39 34.581533 -115.418505 200 24550ft 487kts
22-Jun-20 20:40 34.454256 -115.473950 201 25600ft 484kts
22-Jun-20 20:41 34.330281 -115.534498 209 26704ft 479kts
22-Jun-20 20:42 34.212865 -115.608568 204 27818ft 476kts
22-Jun-20 20:43 34.089536 -115.670595 203 27993ft 491kts
22-Jun-20 20:44 33.960144 -115.732700 202 27871ft 507kts
22-Jun-20 20:45 33.834672 -115.793460 203 27794ft 478kts
22-Jun-20 20:46 33.718148 -115.849798 202 27801ft 450kts
22-Jun-20 20:47 33.601161 -115.904425 202 27649ft 444kts
22-Jun-20 20:48 33.503361 -115.984544 229 25826ft 426kts
22-Jun-20 20:49 33.429543 -116.096617 235 23909ft 422kts
22-Jun-20 20:50 33.362361 -116.208138 231 21493ft 407kts
22-Jun-20 20:51 33.273851 -116.286966 206 19075ft 396kts
22-Jun-20 20:52 33.176864 -116.344185 206 16803ft 381kts
22-Jun-20 20:53 33.083740 -116.398661 206 14595ft 366kts
22-Jun-20 20:54 32.999649 -116.451225 217 13219ft 333kts
22-Jun-20 20:55 32.929466 -116.520975 221 11365ft 324kts
22-Jun-20 20:56 32.864058 -116.586969 221 10236ft 282kts
22-Jun-20 20:57 32.806567 -116.644824 221 9137ft 270kts
22-Jun-20 20:58 32.757685 -116.711328 241 7811ft 269kts
22-Jun-20 20:59 32.721425 -116.788715 241 6489ft 267kts
22-Jun-20 21:00 32.691897 -116.867447 250 5182ft 249kts
22-Jun-20 21:01 32.674141 -116.942439 274 4068ft 230kts
22-Jun-20 21:02 32.691324 -117.016068 285 3002ft 230kts
22-Jun-20 21:03 32.706175 -117.076663 285 1959ft 153kts
22-Jun-20 21:04 32.717827 -117.123623 284 1119ft 148kts
22-Jun-20 21:05 32.728884 -117.170384 285 228ft 146kts
22-Jun-20 21:06 32.734949 -117.198646 251 27ft 14kts
22-Jun-20 21:07 32.734581 -117.205439 196 27ft 19kts
22-Jun-20 21:08 32.733845 -117.204653 86 27ft 0kts
22-Jun-20 21:09 32.733845 -117.204653 86 27ft 0kts

Navigation Log

Ident Type
Flight plan parsing failed, navigation log unavailable